Time;durP1;ratioP1;P1;durP2;ratioP2;P2;SDS_P1;SDS_P2;PMS_P1;PMS_P2;Temp;Humidity;BMP_temperature;BMP_pressure;BME280_temperature;BME280_humidity;BME280_pressure;Samples;Min_cycle;Max_cycle;Signal;HPM_P1;HPM_P2
2022/06/12 00:02:08;;;;;;;;;;;15.60;99.90;;;;;;5047885;28;19925;-75
2022/06/12 00:04:35;;;;;;;;;;;15.60;99.90;;;;;;5042013;28;19932;-75
2022/06/12 00:07:02;;;;;;;;;;;15.50;99.90;;;;;;5046947;28;19928;-76
2022/06/12 00:09:28;;;;;;;;;;;15.50;99.90;;;;;;5045479;28;20332;-75
2022/06/12 00:11:55;;;;;;;;;;;15.50;99.90;;;;;;5045572;28;19932;-74
2022/06/12 00:14:22;;;;;;;;;;;15.40;99.90;;;;;;5041447;28;19924;-76
2022/06/12 00:16:52;;;;;;;;;;;15.30;99.90;;;;;;5047512;28;20430;-75
2022/06/12 00:19:19;;;;;;;;;;;15.20;99.90;;;;;;5045770;28;19940;-75
2022/06/12 00:21:46;;;;;;;;;;;15.20;99.90;;;;;;5043073;28;19924;-75
2022/06/12 00:24:14;;;;;;;;;;;15.20;99.90;;;;;;5032605;28;19931;-75
2022/06/12 00:26:43;;;;;;;19.57;5.63;;;15.10;99.90;;;;;;5041827;28;20401;-76
2022/06/12 00:29:12;;;;;;;16.90;5.70;;;15.00;99.90;;;;;;5040236;28;20234;-76
2022/06/12 00:31:43;;;;;;;14.87;4.83;;;15.00;99.90;;;;;;5042427;28;20334;-75
2022/06/12 00:34:14;;;;;;;16.63;5.43;;;14.90;99.90;;;;;;5045347;28;20892;-75
2022/06/12 00:36:42;;;;;;;16.40;5.57;;;14.90;99.90;;;;;;5044066;28;20200;-76
2022/06/12 00:39:09;;;;;;;15.30;4.87;;;14.90;99.90;;;;;;5039673;28;20224;-76
2022/06/12 00:41:39;;;;;;;17.10;5.60;;;14.80;99.90;;;;;;5048336;28;20309;-76
2022/06/12 00:44:07;;;;;;;14.10;5.43;;;14.80;99.90;;;;;;5049837;28;20211;-77
2022/06/12 00:46:37;;;;;;;19.00;5.03;;;14.70;99.90;;;;;;5041799;28;20212;-77
2022/06/12 00:49:10;;;;;;;13.20;5.10;;;14.70;99.90;;;;;;5073611;28;20211;-78
2022/06/12 00:51:39;;;;;;;14.37;5.27;;;14.70;99.90;;;;;;5066047;28;20229;-76
2022/06/12 00:54:07;;;;;;;16.30;5.17;;;14.60;99.90;;;;;;5057105;28;20214;-75
2022/06/12 00:56:38;;;;;;;13.67;5.27;;;14.50;99.90;;;;;;5052718;28;20210;-76
2022/06/12 00:59:11;;;;;;;19.77;5.70;;;14.50;99.90;;;;;;5046095;28;20207;-76
2022/06/12 01:01:42;;;;;;;10.33;5.07;;;14.40;99.90;;;;;;5056656;28;20240;-76
2022/06/12 01:06:58;;;;;;;13.87;5.37;;;14.30;99.90;;;;;;5062853;28;20220;-77
2022/06/12 01:09:30;;;;;;;20.67;5.83;;;14.20;99.90;;;;;;5060518;28;20229;-75
2022/06/12 01:11:59;;;;;;;14.43;5.00;;;14.20;99.90;;;;;;5044957;28;20244;-76
2022/06/12 01:14:31;;;;;;;18.27;5.10;;;14.00;99.90;;;;;;5035171;28;20206;-77
2022/06/12 01:17:01;;;;;;;16.07;5.50;;;14.00;99.90;;;;;;5045461;28;20307;-77
2022/06/12 01:19:34;;;;;;;13.63;5.13;;;13.90;99.90;;;;;;5047364;28;20210;-77
2022/06/12 01:22:50;;;;;;;15.27;5.77;;;13.80;99.90;;;;;;5047136;28;20294;-76
2022/06/12 01:25:49;;;;;;;19.07;5.80;;;13.80;99.90;;;;;;5040830;28;20741;-75
2022/06/12 01:28:38;;;;;;;14.97;5.77;;;13.70;99.90;;;;;;5025648;28;20244;-77
2022/06/12 01:31:14;;;;;;;19.93;6.83;;;13.60;99.90;;;;;;5026723;28;20217;-76
2022/06/12 01:33:48;;;;;;;16.83;6.03;;;13.60;99.90;;;;;;5049915;28;20201;-76
2022/06/12 01:36:22;;;;;;;13.93;5.30;;;13.50;99.90;;;;;;5045123;28;20202;-77
2022/06/12 01:38:57;;;;;;;16.60;6.53;;;13.40;99.90;;;;;;5047037;28;20213;-77
2022/06/12 01:41:30;;;;;;;16.73;5.33;;;13.30;99.90;;;;;;5047524;28;20230;-76
2022/06/12 01:44:08;;;;;;;19.33;6.97;;;13.30;99.90;;;;;;5046035;28;20210;-76
2022/06/12 01:46:41;;;;;;;18.97;6.53;;;13.30;99.90;;;;;;5036570;28;20293;-78
2022/06/12 01:49:15;;;;;;;19.40;6.30;;;13.20;99.90;;;;;;5043601;28;20201;-76
2022/06/12 01:51:49;;;;;;;17.80;7.10;;;13.20;99.90;;;;;;5049010;28;20229;-77
2022/06/12 01:54:23;;;;;;;18.23;6.90;;;13.20;99.90;;;;;;5049667;28;20259;-76
2022/06/12 01:56:56;;;;;;;21.93;6.90;;;13.10;99.90;;;;;;5045825;28;20211;-77
2022/06/12 01:59:27;;;;;;;20.10;6.97;;;13.10;99.90;;;;;;5048142;28;20568;-77
2022/06/12 02:01:58;;;;;;;18.23;7.57;;;13.00;99.90;;;;;;5049197;28;20307;-76
2022/06/12 02:04:31;;;;;;;20.33;7.30;;;12.80;99.90;;;;;;5048939;28;20219;-78
2022/06/12 02:07:02;;;;;;;15.60;7.10;;;13.00;99.90;;;;;;5044729;28;20230;-77
2022/06/12 02:09:35;;;;;;;20.60;8.30;;;13.00;99.90;;;;;;5029869;28;20686;-77
2022/06/12 02:14:59;;;;;;;22.87;8.57;;;12.90;99.90;;;;;;5049362;28;20232;-76
2022/06/12 02:17:32;;;;;;;21.63;9.03;;;12.90;99.90;;;;;;5048875;28;20707;-76
2022/06/12 02:20:01;;;;;;;21.60;8.37;;;12.80;99.90;;;;;;5030458;28;20596;-77
2022/06/12 02:22:31;;;;;;;23.35;9.55;;;12.80;99.90;;;;;;5029389;28;20249;-76
2022/06/12 02:25:04;;;;;;;25.37;10.33;;;12.70;99.90;;;;;;5039252;28;20612;-75
2022/06/12 02:27:34;;;;;;;21.27;8.40;;;12.70;99.90;;;;;;5022726;28;20236;-77
2022/06/12 02:30:09;;;;;;;30.13;10.83;;;12.70;99.90;;;;;;5047776;28;20209;-76
2022/06/12 02:32:39;;;;;;;24.47;9.87;;;12.60;99.90;;;;;;5047981;28;20235;-76
2022/06/12 02:35:11;;;;;;;26.33;9.67;;;12.60;99.90;;;;;;5028658;28;20220;-76
2022/06/12 02:37:43;;;;;;;25.40;9.77;;;12.60;99.90;;;;;;5045264;28;20615;-76
2022/06/12 02:40:17;;;;;;;23.23;10.27;;;12.50;99.90;;;;;;5026917;28;20221;-76
2022/06/12 02:42:47;;;;;;;25.50;10.87;;;12.50;99.90;;;;;;5038695;28;20236;-76
2022/06/12 02:45:21;;;;;;;20.33;9.83;;;12.50;99.90;;;;;;5045263;28;20202;-76
2022/06/12 02:47:49;;;;;;;22.43;9.43;;;12.50;99.90;;;;;;5039663;28;20278;-76
2022/06/12 02:50:21;;;;;;;23.63;10.33;;;12.50;99.90;;;;;;5022623;28;20217;-77
2022/06/12 02:52:56;;;;;;;19.23;9.73;;;12.40;99.90;;;;;;5041680;28;20665;-78
2022/06/12 02:55:28;;;;;;;23.30;10.47;;;12.40;99.90;;;;;;5042597;28;20211;-76
2022/06/12 02:58:06;;;;;;;23.07;11.27;;;12.30;99.90;;;;;;5048587;28;20815;-76
2022/06/12 03:00:42;;;;;;;26.87;11.37;;;12.30;99.90;;;;;;5041835;28;20209;-76
2022/06/12 03:03:19;;;;;;;25.90;11.23;;;12.20;99.90;;;;;;5045068;28;20232;-75
2022/06/12 03:05:51;;;;;;;26.43;11.40;;;12.20;99.90;;;;;;5043237;28;20760;-77
2022/06/12 03:08:20;;;;;;;26.97;11.60;;;12.20;99.90;;;;;;5043841;28;20324;-76
2022/06/12 03:10:51;;;;;;;29.17;11.77;;;12.20;99.90;;;;;;5042257;28;20228;-76
2022/06/12 03:13:20;;;;;;;21.37;11.47;;;12.20;99.90;;;;;;5047519;28;20244;-77
2022/06/12 03:15:53;;;;;;;41.23;15.57;;;12.20;99.90;;;;;;5049035;28;20291;-76
2022/06/12 03:18:24;;;;;;;23.33;12.10;;;12.20;99.90;;;;;;5046489;28;20208;-76
2022/06/12 03:21:06;;;;;;;23.40;12.30;;;12.10;99.90;;;;;;5042606;28;20679;-76
2022/06/12 03:23:49;;;;;;;24.23;11.43;;;12.10;99.90;;;;;;5026229;28;20840;-77
2022/06/12 03:26:23;;;;;;;25.13;12.27;;;12.10;99.90;;;;;;5039621;28;20291;-75
2022/06/12 03:28:53;;;;;;;26.30;13.77;;;12.00;99.90;;;;;;5045463;28;20614;-76
2022/06/12 03:31:29;;;;;;;25.00;12.87;;;12.10;99.90;;;;;;5047408;28;20667;-74
2022/06/12 03:34:05;;;;;;;29.13;12.90;;;12.10;99.90;;;;;;5040055;28;20205;-73
2022/06/12 03:36:38;;;;;;;26.00;12.80;;;12.10;99.90;;;;;;5028190;28;20482;-76
2022/06/12 03:39:11;;;;;;;25.33;12.27;;;12.00;99.90;;;;;;5046413;28;20256;-74
2022/06/12 03:41:45;;;;;;;19.80;11.50;;;12.00;99.90;;;;;;5048119;28;20225;-76
2022/06/12 03:44:17;;;;;;;23.43;11.90;;;12.10;99.90;;;;;;5044191;28;20215;-76
2022/06/12 03:46:49;;;;;;;19.80;12.93;;;12.10;99.90;;;;;;5027235;28;20209;-76
2022/06/12 03:49:22;;;;;;;21.43;12.33;;;12.10;99.90;;;;;;5034213;28;20615;-76
2022/06/12 03:51:54;;;;;;;26.47;11.97;;;12.10;99.90;;;;;;5046364;28;20267;-76
2022/06/12 03:54:26;;;;;;;25.40;12.30;;;12.20;99.90;;;;;;5030106;28;20685;-76
2022/06/12 03:59:47;;;;;;;22.70;11.63;;;12.10;99.90;;;;;;5047049;28;20216;-76
2022/06/12 04:02:22;;;;;;;22.20;11.90;;;12.10;99.90;;;;;;5047480;28;20233;-76
2022/06/12 04:04:50;;;;;;;20.53;11.83;;;12.20;99.90;;;;;;5033332;28;20663;-76
2022/06/12 04:07:20;;;;;;;21.97;12.20;;;12.20;99.90;;;;;;5046465;28;20251;-76
2022/06/12 04:09:50;;;;;;;20.40;12.77;;;12.30;99.90;;;;;;5039697;28;20209;-76
2022/06/12 04:12:20;;;;;;;20.17;12.17;;;12.30;99.90;;;;;;5042012;28;20231;-74
2022/06/12 04:14:55;;;;;;;20.80;13.20;;;12.40;99.90;;;;;;5048079;28;20243;-74
2022/06/12 04:17:24;;;;;;;26.13;12.73;;;12.40;99.90;;;;;;5042848;28;20215;-77
2022/06/12 04:20:03;;;;;;;27.40;12.70;;;12.50;99.90;;;;;;5038258;28;20242;-76
2022/06/12 04:22:45;;;;;;;20.27;12.40;;;12.60;99.90;;;;;;5046438;28;20240;-77
2022/06/12 04:25:26;;;;;;;21.17;12.27;;;12.60;99.90;;;;;;5046899;28;20981;-75
2022/06/12 04:27:54;;;;;;;19.97;13.47;;;12.70;99.90;;;;;;5047602;28;20235;-77
2022/06/12 04:30:25;;;;;;;23.20;12.80;;;12.70;99.90;;;;;;5045799;28;20268;-75
2022/06/12 04:33:16;;;;;;;21.00;12.70;;;12.80;99.90;;;;;;5041566;28;20240;-77
2022/06/12 04:35:50;;;;;;;19.37;13.10;;;12.90;99.90;;;;;;5037121;28;20219;-75
2022/06/12 04:38:17;;;;;;;20.40;12.10;;;12.90;99.90;;;;;;5041984;28;20222;-76
2022/06/12 04:40:44;;;;;;;18.97;10.77;;;13.00;99.90;;;;;;5049416;28;20690;-77
2022/06/12 04:43:20;;;;;;;23.17;12.17;;;13.10;99.90;;;;;;5068839;28;20768;-76
2022/06/12 04:45:48;;;;;;;16.30;10.97;;;13.20;99.90;;;;;;5044779;28;20709;-76
2022/06/12 04:48:22;;;;;;;18.33;10.50;;;13.30;99.90;;;;;;5051147;28;20245;-76
2022/06/12 04:50:49;;;;;;;19.40;10.70;;;13.50;99.90;;;;;;5050064;28;20219;-77
2022/06/12 04:53:16;;;;;;;15.67;9.80;;;13.50;99.90;;;;;;5050981;28;20227;-78
2022/06/12 04:55:42;;;;;;;16.50;9.50;;;13.60;99.90;;;;;;5052126;28;20226;-75
2022/06/12 04:58:09;;;;;;;16.80;9.30;;;13.70;99.90;;;;;;5056396;28;20201;-76
2022/06/12 05:00:38;;;;;;;18.93;9.20;;;13.80;99.90;;;;;;5045491;28;20210;-77
2022/06/12 05:03:05;;;;;;;19.93;9.73;;;14.00;99.90;;;;;;5029029;28;20234;-75
2022/06/12 05:05:33;;;;;;;19.77;9.80;;;14.10;99.90;;;;;;5030348;28;20218;-76
2022/06/12 05:08:00;;;;;;;18.10;9.27;;;14.20;99.90;;;;;;5042937;28;20230;-77
2022/06/12 05:10:27;;;;;;;22.80;9.17;;;14.40;99.90;;;;;;5039858;28;20676;-77
2022/06/12 05:12:54;;;;;;;14.33;8.10;;;14.50;99.90;;;;;;5047677;28;20329;-77
2022/06/12 05:15:21;;;;;;;15.83;7.70;;;14.70;99.90;;;;;;5046314;28;20575;-77
2022/06/12 05:17:50;;;;;;;15.90;7.77;;;14.80;99.90;;;;;;5048014;28;20211;-77
2022/06/12 05:20:20;;;;;;;14.53;6.43;;;15.00;99.90;;;;;;5029600;28;20227;-76
2022/06/12 05:22:49;;;;;;;12.37;6.43;;;15.20;99.90;;;;;;5048064;28;20251;-78
2022/06/12 05:25:17;;;;;;;12.53;5.73;;;15.40;99.90;;;;;;5048585;28;20220;-77
2022/06/12 05:27:45;;;;;;;13.03;5.47;;;15.60;99.90;;;;;;5049308;28;20200;-78
2022/06/12 05:30:14;;;;;;;16.27;5.83;;;15.90;99.90;;;;;;5045762;28;20220;-79
2022/06/12 05:32:41;;;;;;;13.50;5.23;;;;;;;;;;5045985;28;20229;-77
2022/06/12 05:35:09;;;;;;;14.03;4.37;;;;;;;;;;5062441;28;20215;-78
2022/06/12 05:37:36;;;;;;;10.50;3.93;;;19.00;99.90;;;;;;5051526;28;20307;-76
2022/06/12 05:40:05;;;;;;;11.43;3.90;;;20.80;99.90;;;;;;5059126;28;20211;-79
2022/06/12 05:42:32;;;;;;;8.63;3.37;;;22.70;99.90;;;;;;5030349;28;20603;-77
2022/06/12 05:44:59;;;;;;;8.27;3.17;;;24.50;99.90;;;;;;5057056;28;20211;-78
2022/06/12 05:47:26;;;;;;;;;;;26.20;99.90;;;;;;5038037;28;20210;-77
2022/06/12 05:49:52;;;;;;;;;;;27.70;99.90;;;;;;5048175;28;20020;-79
2022/06/12 05:52:19;;;;;;;;;;;29.00;99.90;;;;;;5030741;28;19935;-79
2022/06/12 05:54:46;;;;;;;;;;;31.10;99.90;;;;;;5046678;28;20390;-78
2022/06/12 05:57:14;;;;;;;;;;;31.20;99.90;;;;;;5045799;28;20290;-79
2022/06/12 05:59:44;;;;;;;;;;;31.90;99.90;;;;;;5028056;28;19924;-79
2022/06/12 06:02:13;;;;;;;;;;;32.60;99.90;;;;;;5028405;28;19974;-78
2022/06/12 06:04:39;;;;;;;;;;;32.90;99.90;;;;;;5049874;28;20012;-80
2022/06/12 06:07:06;;;;;;;;;;;33.70;99.90;;;;;;5042523;28;19925;-78
2022/06/12 06:09:33;;;;;;;;;;;34.30;99.90;;;;;;5044541;28;19921;-78
2022/06/12 06:12:01;;;;;;;;;;;34.90;99.70;;;;;;5043094;28;19920;-78
2022/06/12 06:14:29;;;;;;;;;;;35.40;96.20;;;;;;5042836;28;19931;-79
2022/06/12 06:16:56;;;;;;;;;;;35.70;93.50;;;;;;5044658;28;19970;-78
2022/06/12 06:19:23;;;;;;;;;;;35.80;90.90;;;;;;5041765;28;19929;-79
2022/06/12 06:21:49;;;;;;;;;;;36.00;89.20;;;;;;5039704;28;19936;-80
2022/06/12 06:24:16;;;;;;;;;;;36.10;86.60;;;;;;5041850;28;20023;-81
2022/06/12 06:26:43;;;;;;;;;;;36.50;85.40;;;;;;5041523;28;19936;-77
2022/06/12 06:29:10;;;;;;;;;;;37.10;83.60;;;;;;5041412;28;19934;-78
2022/06/12 06:31:38;;;;;;;;;;;37.60;80.50;;;;;;5039549;28;19929;-77
2022/06/12 06:34:05;;;;;;;;;;;38.10;77.30;;;;;;5026126;28;19935;-77
2022/06/12 06:36:32;;;;;;;;;;;38.10;73.80;;;;;;5044675;28;19929;-78
2022/06/12 06:38:59;;;;;;;;;;;37.90;73.10;;;;;;5039517;28;19924;-79
2022/06/12 06:41:26;;;;;;;;;;;37.70;72.60;;;;;;5040928;28;19936;-79
2022/06/12 06:46:38;;;;;;;;;;;37.90;70.30;;;;;;5037802;28;20250;-78
2022/06/12 06:49:05;;;;;;;;;;;38.10;69.40;;;;;;5036713;28;20341;-79
2022/06/12 06:51:32;;;;;;;;;;;38.30;73.20;;;;;;5041715;28;19928;-79
2022/06/12 06:53:59;;;;;;;;;;;38.40;68.20;;;;;;5023858;28;20348;-78
2022/06/12 06:56:26;;;;;;;;;;;38.80;66.70;;;;;;5043313;28;20451;-79
2022/06/12 06:58:53;;;;;;;;;;;39.00;66.10;;;;;;5025628;28;19956;-79
2022/06/12 07:01:20;;;;;;;;;;;39.40;63.90;;;;;;5045790;28;20424;-80
2022/06/12 07:03:48;;;;;;;;;;;39.40;63.60;;;;;;5048247;28;20416;-78
2022/06/12 07:06:16;;;;;;;;;;;39.10;61.10;;;;;;5051658;28;19929;-78
2022/06/12 07:08:43;;;;;;;;;;;38.80;61.70;;;;;;5052635;28;19928;-79
2022/06/12 07:11:10;;;;;;;;;;;38.70;61.20;;;;;;5046415;28;19928;-79
2022/06/12 07:13:37;;;;;;;;;;;38.70;61.10;;;;;;5040868;28;19924;-78
2022/06/12 07:16:04;;;;;;;;;;;39.00;60.90;;;;;;5041803;28;20015;-81
2022/06/12 07:18:30;;;;;;;;;;;39.10;60.00;;;;;;5032451;28;19940;-79
2022/06/12 07:21:01;;;;;;;;;;;39.30;59.30;;;;;;5036456;28;20339;-79
2022/06/12 07:23:28;;;;;;;;;;;39.60;59.00;;;;;;5034296;28;19925;-78
2022/06/12 07:25:56;;;;;;;;;;;39.80;58.60;;;;;;5038555;28;19927;-81
2022/06/12 07:28:23;;;;;;;;;;;39.90;58.10;;;;;;5040852;28;20401;-80
2022/06/12 07:30:51;;;;;;;;;;;40.10;57.20;;;;;;5041014;28;19943;-78
2022/06/12 07:33:18;;;;;;;;;;;40.10;56.50;;;;;;5022241;28;19978;-80
2022/06/12 07:35:45;;;;;;;;;;;39.90;54.60;;;;;;5039750;28;19925;-79
2022/06/12 07:38:15;;;;;;;;;;;39.50;55.40;;;;;;5040503;28;20826;-78
2022/06/12 07:40:43;;;;;;;;;;;39.20;55.10;;;;;;5036635;28;19996;-79
2022/06/12 07:43:09;;;;;;;;;;;39.30;55.50;;;;;;5019800;28;20023;-80
2022/06/12 07:45:36;;;;;;;;;;;39.40;54.60;;;;;;5039018;28;19935;-79
2022/06/12 07:48:03;;;;;;;;;;;39.30;54.30;;;;;;5045310;28;19920;-79
2022/06/12 07:50:30;;;;;;;;;;;39.10;53.70;;;;;;5044106;28;20333;-79
2022/06/12 07:52:58;;;;;;;;;;;38.70;54.30;;;;;;5029073;28;19925;-79
2022/06/12 07:55:26;;;;;;;;;;;38.60;53.80;;;;;;5045647;28;19966;-78
2022/06/12 07:57:54;;;;;;;;;;;38.40;53.10;;;;;;5046925;28;19968;-80
2022/06/12 08:00:20;;;;;;;;;;;38.20;53.80;;;;;;5043024;28;19932;-79
2022/06/12 08:02:47;;;;;;;;;;;38.20;53.10;;;;;;5047509;28;19927;-79
2022/06/12 08:05:15;;;;;;;;;;;38.30;53.80;;;;;;5048855;28;20284;-79
2022/06/12 08:07:41;;;;;;;;;;;38.30;53.30;;;;;;5045420;28;20382;-79
2022/06/12 08:10:09;;;;;;;;;;;38.20;54.10;;;;;;5040302;28;19962;-79
2022/06/12 08:12:38;;;;;;;;;;;38.40;54.40;;;;;;5022187;28;19936;-79
2022/06/12 08:15:05;;;;;;;;;;;38.40;53.50;;;;;;5030110;28;20321;-79
2022/06/12 08:17:32;;;;;;;;;;;38.30;53.10;;;;;;5045580;28;19929;-79
2022/06/12 08:22:42;;;;;;;;;;;37.70;53.60;;;;;;5047825;28;19955;-79
2022/06/12 08:25:09;;;;;;;;;;;37.70;54.00;;;;;;5047967;28;19924;-79
2022/06/12 08:27:37;;;;;;;;;;;37.70;53.20;;;;;;5049280;28;19956;-79
2022/06/12 08:30:05;;;;;;;;;;;37.50;52.90;;;;;;5029329;28;20290;-79
2022/06/12 08:32:32;;;;;;;;;;;37.30;53.90;;;;;;5029211;28;20568;-80
2022/06/12 08:35:01;;;;;;;;;;;37.10;53.10;;;;;;5038892;28;19929;-79
2022/06/12 08:37:30;;;;;;;;;;;37.40;53.00;;;;;;5020049;28;19950;-78
2022/06/12 08:39:57;;;;;;;;;;;37.40;53.00;;;;;;5036143;28;19924;-78
2022/06/12 08:42:25;;;;;;;;;;;36.60;52.20;;;;;;5051039;28;19931;-78
2022/06/12 08:44:55;;;;;;;;;;;36.50;52.30;;;;;;5044498;28;19935;-79
2022/06/12 08:47:25;;;;;;;;;;;35.90;53.30;;;;;;5039854;28;19928;-78
2022/06/12 08:49:55;;;;;;;;;;;35.40;54.40;;;;;;5044237;28;19924;-79
2022/06/12 08:52:24;;;;;;;;;;;35.50;55.30;;;;;;5042664;28;20420;-80
2022/06/12 08:54:55;;;;;;;;;;;35.40;53.70;;;;;;5042149;28;20015;-79
2022/06/12 08:57:25;;;;;;;;;;;35.10;55.10;;;;;;5047325;28;20394;-79
2022/06/12 08:59:56;;;;;;;;;;;35.10;55.40;;;;;;5023454;28;19932;-80
2022/06/12 09:02:26;;;;;;;;;;;34.90;55.00;;;;;;5047483;28;19997;-79
2022/06/12 09:04:57;;;;;;;;;;;34.60;54.80;;;;;;5032155;28;19928;-79
2022/06/12 09:07:27;;;;;;;;;;;34.40;55.60;;;;;;5048017;28;20016;-81
2022/06/12 09:09:55;;;;;;;;;;;34.30;55.40;;;;;;5041749;28;19925;-80
2022/06/12 09:12:24;;;;;;;;;;;33.80;54.90;;;;;;5053483;28;19924;-79
2022/06/12 09:15:00;;;;;;;;;;;33.40;56.10;;;;;;5033378;28;19939;-79
2022/06/12 09:17:35;;;;;;;;;;;33.10;56.80;;;;;;5057736;28;19959;-79
2022/06/12 09:20:07;;;;;;;;;;;32.70;56.00;;;;;;5052769;28;19920;-80
2022/06/12 09:22:39;;;;;;;;;;;32.10;56.30;;;;;;5051779;28;19921;-79
2022/06/12 09:25:10;;;;;;;;;;;32.00;57.10;;;;;;5051071;28;20410;-80
2022/06/12 09:27:41;;;;;;;;;;;32.00;57.50;;;;;;5052940;28;20023;-80
2022/06/12 09:30:12;;;;;;;;;;;31.90;57.00;;;;;;5064165;28;19920;-80
2022/06/12 09:32:46;;;;;;;;;;;31.40;56.50;;;;;;5069684;28;19989;-80
2022/06/12 09:35:27;;;;;;;;;;;31.10;57.80;;;;;;5041493;28;19924;-79
2022/06/12 09:40:51;;;;;;;;;;;30.30;59.90;;;;;;5042678;28;20019;-79
2022/06/12 09:43:21;;;;;;;;;;;30.20;60.00;;;;;;5025737;28;19929;-79
2022/06/12 09:45:58;;;;;;;;;;;30.20;61.30;;;;;;5046902;28;19925;-79
2022/06/12 09:48:31;;;;;;;;;;;30.20;61.30;;;;;;5050338;28;19925;-79
2022/06/12 09:51:02;;;;;;;;;;;30.10;61.10;;;;;;5056892;28;19925;-79
2022/06/12 09:53:35;;;;;;;;;;;29.90;60.90;;;;;;5033808;28;20421;-79
2022/06/12 09:56:04;;;;;;;;;;;29.80;61.70;;;;;;5026227;28;19921;-79
2022/06/12 09:58:34;;;;;;;;;;;29.90;61.40;;;;;;5049758;28;19925;-79
2022/06/12 10:01:04;;;;;;;;;;;29.80;61.50;;;;;;5042880;28;19936;-79
2022/06/12 10:03:39;;;;;;;;;;;29.20;60.20;;;;;;5043026;28;20000;-79
2022/06/12 10:06:09;;;;;;;;;;;28.40;61.10;;;;;;5052363;28;20003;-77
2022/06/12 10:08:39;;;;;;;;;;;27.50;62.30;;;;;;5050420;28;19953;-79
2022/06/12 10:11:08;;;;;;;;;;;26.90;63.60;;;;;;5026627;28;19952;-79
2022/06/12 10:13:36;;;;;;;;;;;26.50;64.00;;;;;;5044772;28;19929;-79
2022/06/12 10:16:10;;;;;;;;;;;26.10;64.70;;;;;;5039169;28;19932;-78
2022/06/12 10:18:39;;;;;;;;;;;25.70;65.40;;;;;;5025917;28;19952;-77
2022/06/12 10:21:09;;;;;;;;;;;25.30;67.30;;;;;;5033132;28;19925;-78
2022/06/12 10:23:35;;;;;;;;;;;23.20;65.70;;;;;;5050278;28;19936;-79
2022/06/12 10:26:08;;;;;;;;;;;24.90;69.20;;;;;;5053193;28;19960;-78
2022/06/12 10:28:36;;;;;;;;;;;24.80;70.00;;;;;;5048377;28;20358;-78
2022/06/12 10:31:18;;;;;;;;;;;24.70;70.30;;;;;;5029583;28;20305;-78
2022/06/12 10:33:49;;;;;;;;;;;24.70;70.50;;;;;;5047836;28;19921;-78
2022/06/12 10:36:20;;;;;;;;;;;24.70;71.80;;;;;;5049137;28;19930;-79
2022/06/12 10:38:47;;;;;;;;;;;24.70;72.10;;;;;;5046394;28;19931;-79
2022/06/12 10:41:21;;;;;;;;;;;24.80;72.80;;;;;;5048601;28;20375;-79
2022/06/12 10:43:48;;;;;;;;;;;26.10;72.60;;;;;;5052264;28;19924;-77
2022/06/12 10:46:18;;;;;;;;;;;24.90;72.30;;;;;;5049412;28;19921;-77
2022/06/12 10:48:56;;;;;;;;;;;24.80;71.80;;;;;;5043775;28;19935;-78
2022/06/12 10:51:25;;;;;;;;;;;24.70;72.00;;;;;;5041002;28;19921;-78
2022/06/12 10:53:57;;;;;;;;;;;24.70;73.10;;;;;;5049689;28;19937;-79
2022/06/12 10:56:25;;;;;;;;;;;24.70;73.60;;;;;;5043759;28;19921;-79
2022/06/12 10:59:09;;;;;;;;;;;24.70;73.40;;;;;;5029683;28;19936;-80
2022/06/12 11:01:40;;;;;;;;;;;24.70;73.70;;;;;;5048981;28;19927;-78
2022/06/12 11:04:14;;;;;;;;;;;24.80;74.70;;;;;;5049541;28;19928;-78
2022/06/12 11:06:43;;;;;;;;;;;25.00;74.60;;;;;;5030945;28;19927;-79
2022/06/12 11:09:18;;;;;;;;;;;25.10;74.70;;;;;;5031386;28;19924;-78
2022/06/12 11:11:54;;;;;;;;;;;25.20;74.80;;;;;;5050986;28;19974;-79
2022/06/12 11:14:29;;;;;;;;;;;25.20;75.00;;;;;;5048411;28;20019;-78
2022/06/12 11:17:06;;;;;;;;;;;25.30;75.40;;;;;;5036683;28;20342;-79
2022/06/12 11:19:44;;;;;;;;;;;25.30;75.40;;;;;;5052501;28;19982;-79
2022/06/12 11:22:18;;;;;;;;;;;25.30;74.30;;;;;;5053791;28;19931;-78
2022/06/12 11:24:51;;;;;;;;;;;25.30;75.40;;;;;;5047223;28;20346;-79
2022/06/12 11:27:24;;;;;;;;;;;25.20;74.50;;;;;;5042174;28;20634;-79
2022/06/12 11:30:13;;;;;;;;;;;25.10;74.20;;;;;;5047926;28;19925;-79
2022/06/12 11:32:49;;;;;;;;;;;25.20;74.60;;;;;;5050234;28;19924;-78
2022/06/12 11:35:26;;;;;;;;;;;25.30;75.10;;;;;;5052643;28;19921;-79
2022/06/12 11:38:00;;;;;;;;;;;25.00;75.30;;;;;;5049974;28;19925;-79
2022/06/12 11:40:34;;;;;;;;;;;24.70;75.70;;;;;;5048398;28;19955;-77
2022/06/12 11:43:05;;;;;;;;;;;24.80;75.90;;;;;;5046977;28;19933;-77
2022/06/12 11:45:39;;;;;;;;;;;25.10;77.30;;;;;;5046572;28;19931;-78
2022/06/12 11:48:14;;;;;;;;;;;25.40;76.90;;;;;;5044622;28;19991;-78
2022/06/12 11:50:43;;;;;;;;;;;25.50;76.20;;;;;;5048600;28;19925;-78
2022/06/12 11:53:22;;;;;;;;;;;25.60;76.80;;;;;;5049868;28;19927;-79
2022/06/12 11:55:51;;;;;;;;;;;25.70;76.40;;;;;;5049517;28;19939;-77
2022/06/12 11:58:21;;;;;;;;;;;25.30;76.50;;;;;;5042060;28;19921;-78
2022/06/12 12:00:53;;;;;;;;;;;25.70;75.80;;;;;;5047226;28;19963;-78
2022/06/12 12:03:31;;;;;;;;;;;25.70;74.30;;;;;;5049386;28;19965;-78
2022/06/12 12:06:04;;;;;;;;;;;25.70;74.30;;;;;;5031345;28;19924;-78
2022/06/12 12:08:48;;;;;;;;;;;25.70;74.40;;;;;;5026373;28;19920;-78
2022/06/12 12:11:15;;;;;;;;;;;;;;;;;;5031254;28;20074;-78
2022/06/12 12:13:45;;;;;;;;;;;25.90;74.20;;;;;;5049488;28;19924;-79
2022/06/12 12:16:16;;;;;;;;;;;26.10;74.40;;;;;;5048226;28;19924;-78
2022/06/12 12:18:45;;;;;;;;;;;26.20;74.10;;;;;;5048296;28;20006;-78
2022/06/12 12:21:14;;;;;;;;;;;26.40;74.20;;;;;;5046931;28;19932;-80
2022/06/12 12:23:43;;;;;;;;;;;26.60;72.80;;;;;;5045901;28;20478;-79
2022/06/12 12:26:15;;;;;;;;;;;22.50;68.40;;;;;;5037260;28;19932;-78
2022/06/12 12:28:46;;;;;;;;;;;26.80;70.40;;;;;;5050325;28;19924;-78
2022/06/12 12:31:14;;;;;;;;;;;26.80;70.50;;;;;;5044407;28;19928;-80
2022/06/12 12:33:41;;;;;;;;;;;26.80;70.50;;;;;;5047268;28;19948;-81
2022/06/12 12:41:43;;;;;;;;;;;26.60;70.50;;;;;;5061084;28;19921;-79
2022/06/12 12:44:11;;;;;;;;;;;26.60;71.00;;;;;;5065460;28;19931;-79
2022/06/12 12:46:44;;;;;;;;;;;26.70;71.10;;;;;;5051972;28;19929;-79
2022/06/12 12:49:20;;;;;;;;;;;26.80;71.50;;;;;;5048266;28;19956;-80
2022/06/12 12:51:49;;;;;;;;;;;27.30;71.00;;;;;;5034208;28;19925;-79
2022/06/12 12:54:16;;;;;;;;;;;27.30;71.20;;;;;;5052557;28;19920;-78
2022/06/12 12:56:52;;;;;;;;;;;27.20;70.80;;;;;;5043587;28;19925;-80
2022/06/12 12:59:19;;;;;;;;;;;27.00;70.30;;;;;;5057110;28;19978;-80
2022/06/12 13:01:47;;;;;;;;;;;27.00;70.30;;;;;;5055101;28;20560;-79
2022/06/12 13:04:16;;;;;;;;;;;27.00;70.30;;;;;;5046778;28;19925;-79
2022/06/12 13:06:52;;;;;;;;;;;27.00;70.60;;;;;;5049444;28;19971;-79
2022/06/12 13:09:40;;;;;;;;;;;27.10;71.10;;;;;;5043021;28;19921;-80
2022/06/12 13:12:16;;;;;;;;;;;27.00;70.10;;;;;;5001000;28;19924;-78
2022/06/12 13:14:50;;;;;;;;;;;27.00;70.40;;;;;;5033121;28;19931;-77
2022/06/12 13:17:22;;;;;;;;;;;26.80;70.50;;;;;;5051098;28;19932;-79
2022/06/12 13:19:58;;;;;;;;;;;26.90;70.60;;;;;;5046971;28;19925;-79
2022/06/12 13:22:31;;;;;;;;;;;26.80;69.50;;;;;;5044298;28;19931;-79
2022/06/12 13:25:03;;;;;;;;;;;26.80;69.20;;;;;;5050596;28;20138;-79
2022/06/12 13:27:31;;;;;;;;;;;26.60;69.10;;;;;;5044785;28;19928;-80
2022/06/12 13:29:59;;;;;;;;;;;26.60;70.10;;;;;;5042197;28;19928;-79
2022/06/12 13:32:28;;;;;;;;;;;26.80;70.80;;;;;;5043952;28;19929;-80
2022/06/12 13:34:57;;;;;;;;;;;27.20;71.00;;;;;;5049994;28;19921;-81
2022/06/12 13:37:28;;;;;;;;;;;27.60;70.20;;;;;;5065257;28;19921;-79
2022/06/12 13:39:56;;;;;;;;;;;27.70;69.60;;;;;;5060642;28;19925;-79
2022/06/12 13:42:25;;;;;;;;;;;27.80;69.50;;;;;;5041553;28;19931;-80
2022/06/12 13:44:52;;;;;;;;;;;27.80;69.40;;;;;;5037820;28;20049;-79
2022/06/12 13:47:25;;;;;;;;;;;27.80;69.00;;;;;;5025332;28;19943;-81
2022/06/12 13:49:53;;;;;;;;;;;28.00;70.30;;;;;;5038718;28;19936;-80
2022/06/12 13:52:28;;;;;;;;;;;28.50;68.70;;;;;;5049903;28;19924;-81
2022/06/12 13:54:56;;;;;;;;;;;28.50;68.60;;;;;;5044956;28;20047;-78
2022/06/12 13:57:26;;;;;;;;;;;28.20;66.20;;;;;;5024861;28;20409;-79
2022/06/12 13:59:53;;;;;;;;;;;27.30;67.10;;;;;;5047287;28;19925;-79
2022/06/12 14:02:21;;;;;;;;;;;27.40;67.60;;;;;;5045426;28;20543;-78
2022/06/12 14:04:53;;;;;;;;;;;27.40;67.50;;;;;;5046830;28;20519;-78
2022/06/12 14:07:20;;;;;;;;;;;27.60;67.40;;;;;;5045795;28;19978;-78
2022/06/12 14:09:49;;;;;;;;;;;27.80;68.20;;;;;;5026452;28;20283;-78
2022/06/12 14:12:17;;;;;;;;;;;27.60;65.90;;;;;;5026385;28;19925;-80
2022/06/12 14:14:46;;;;;;;;;;;27.50;66.10;;;;;;5045198;28;19920;-78
2022/06/12 14:17:20;;;;;;;;;;;27.40;67.10;;;;;;5034831;28;19936;-80
2022/06/12 14:19:56;;;;;;;;;;;27.70;67.10;;;;;;5030460;28;19932;-78